Little America, Illinois
Current Conditions -  °F | °C
As of 12:35 AM on Thursday 27 Nov 2014 (Local Time) from KMQB Reporting Station
Scattered Clouds Scattered Clouds  
Wind Chill: -13°   Ceiling: Unl
Heat Index: -8°   Visibility: 7mi
Dew Point: -9°   Wind: 7mph
Humidity: 92%   Direction: 310°NW
Pressure: 30.3"   Gusts: NA
Location:  40.3324°N, 90.1539°W
Report Text: KMQB 270635Z AUTO 31006KT 7SM SCT017 SCT095 M08/M09 A3030 RMK AO2 T10801091
Loading
Personal Weather Stations






























Interactive Weather Map New forecast layout! Learn more

10-Day Weather Forecast

Advertisements
Track Severe Weather on mobile